createdAt,value
2023-01-12T00:02:14.805Z,9.70
2023-01-12T00:04:43.554Z,9.70
2023-01-12T00:07:16.021Z,9.70
2023-01-12T00:09:44.361Z,9.70
2023-01-12T00:12:13.759Z,9.70
2023-01-12T00:14:42.011Z,9.70
2023-01-12T00:17:11.941Z,9.70
2023-01-12T00:19:40.355Z,9.70
2023-01-12T00:22:12.120Z,9.70
2023-01-12T00:24:44.024Z,9.70
2023-01-12T00:27:14.623Z,9.70
2023-01-12T00:29:43.222Z,9.70
2023-01-12T00:32:14.088Z,9.70
2023-01-12T00:34:42.688Z,9.70
2023-01-12T00:37:11.447Z,9.70
2023-01-12T00:39:45.955Z,9.70
2023-01-12T00:42:42.187Z,9.70
2023-01-12T00:45:24.715Z,9.70
2023-01-12T00:47:53.451Z,9.70
2023-01-12T00:50:21.749Z,9.70
2023-01-12T00:52:50.012Z,9.80
2023-01-12T00:55:19.712Z,9.80
2023-01-12T00:57:48.117Z,9.80
2023-01-12T01:00:17.847Z,9.80
2023-01-12T01:02:46.208Z,9.90
2023-01-12T01:05:14.555Z,9.90
2023-01-12T01:07:42.896Z,9.90
2023-01-12T01:10:12.394Z,10.00
2023-01-12T01:12:42.204Z,10.00
2023-01-12T01:15:11.435Z,10.00
2023-01-12T01:17:39.756Z,10.00
2023-01-12T01:20:08.567Z,10.00
2023-01-12T01:22:36.785Z,10.10
2023-01-12T01:25:05.442Z,10.10
2023-01-12T01:27:33.763Z,10.20
2023-01-12T01:30:03.368Z,10.20
2023-01-12T01:32:31.570Z,10.20
2023-01-12T01:34:59.843Z,10.20
2023-01-12T01:37:29.357Z,10.30
2023-01-12T01:39:57.576Z,10.30
2023-01-12T01:42:29.740Z,10.30
2023-01-12T01:45:00.486Z,10.30
2023-01-12T01:47:39.727Z,10.30
2023-01-12T01:50:16.454Z,10.40
2023-01-12T01:52:48.527Z,10.40
2023-01-12T01:55:21.686Z,10.40
2023-01-12T01:57:55.113Z,10.40
2023-01-12T02:00:24.390Z,10.40
2023-01-12T02:02:55.158Z,10.40
2023-01-12T02:05:26.398Z,10.40
2023-01-12T02:07:55.372Z,10.40
2023-01-12T02:10:23.752Z,10.40
2023-01-12T02:13:09.537Z,10.40
2023-01-12T02:16:21.563Z,10.30
2023-01-12T02:19:11.668Z,10.30
2023-01-12T02:22:13.887Z,10.30
2023-01-12T02:25:31.737Z,10.30
2023-01-12T02:28:32.478Z,10.40
2023-01-12T02:31:38.746Z,10.30
2023-01-12T02:34:17.313Z,10.30
2023-01-12T02:36:53.968Z,10.30
2023-01-12T02:39:29.054Z,10.30
2023-01-12T02:42:25.299Z,10.30
2023-01-12T02:45:00.134Z,10.30
2023-01-12T02:47:39.455Z,10.40
2023-01-12T02:50:12.843Z,10.40
2023-01-12T02:52:44.633Z,10.40
2023-01-12T02:55:14.501Z,10.40
2023-01-12T02:57:43.687Z,10.40
2023-01-12T03:00:15.570Z,10.40
2023-01-12T03:02:45.262Z,10.40
2023-01-12T03:05:13.514Z,10.40
2023-01-12T03:07:55.815Z,10.40
2023-01-12T03:10:57.087Z,10.40
2023-01-12T03:13:27.621Z,10.40
2023-01-12T03:15:58.080Z,10.40
2023-01-12T03:18:33.854Z,10.40
2023-01-12T03:21:06.787Z,10.40
2023-01-12T03:23:41.376Z,10.40
2023-01-12T03:26:12.562Z,10.40
2023-01-12T03:28:44.566Z,10.40
2023-01-12T03:31:15.679Z,10.40
2023-01-12T03:33:46.764Z,10.40
2023-01-12T03:36:25.273Z,10.40
2023-01-12T03:39:04.047Z,10.40
2023-01-12T03:41:41.252Z,10.40
2023-01-12T03:44:18.883Z,10.50
2023-01-12T03:46:55.075Z,10.50
2023-01-12T03:49:33.204Z,10.50
2023-01-12T03:52:03.268Z,10.50
2023-01-12T03:54:33.802Z,10.50
2023-01-12T03:57:03.377Z,10.50
2023-01-12T03:59:32.070Z,10.50
2023-01-12T04:02:00.627Z,10.50
2023-01-12T04:04:30.307Z,10.50
2023-01-12T04:06:59.877Z,10.50
2023-01-12T04:09:29.792Z,10.50
2023-01-12T04:12:13.131Z,10.50
2023-01-12T04:14:42.795Z,10.50
2023-01-12T04:17:13.337Z,10.60
2023-01-12T04:19:43.457Z,10.60
2023-01-12T04:22:32.880Z,10.60
2023-01-12T04:25:01.150Z,10.50
2023-01-12T04:27:29.382Z,10.60
2023-01-12T04:29:57.731Z,10.60
2023-01-12T04:32:25.921Z,10.50
2023-01-12T04:34:55.545Z,10.60
2023-01-12T04:37:23.827Z,10.60
2023-01-12T04:39:52.044Z,10.60
2023-01-12T04:42:37.749Z,10.60
2023-01-12T04:45:06.828Z,10.60
2023-01-12T04:47:35.484Z,10.60
2023-01-12T04:50:05.887Z,10.60
2023-01-12T04:52:34.106Z,10.60
2023-01-12T04:55:02.303Z,10.60
2023-01-12T04:57:30.572Z,10.60
2023-01-12T04:59:59.062Z,10.60
2023-01-12T05:02:28.448Z,10.70
2023-01-12T05:04:56.661Z,10.60
2023-01-12T05:07:26.257Z,10.70
2023-01-12T05:10:11.931Z,10.70
2023-01-12T05:12:40.287Z,10.70
2023-01-12T05:15:09.654Z,10.70
2023-01-12T05:17:37.923Z,10.70
2023-01-12T05:20:07.048Z,10.70
2023-01-12T05:22:36.693Z,10.70
2023-01-12T05:25:05.397Z,10.70
2023-01-12T05:27:33.783Z,10.70
2023-01-12T05:30:02.016Z,10.70
2023-01-12T05:32:30.208Z,10.80
2023-01-12T05:34:58.374Z,10.80
2023-01-12T05:37:26.564Z,10.80
2023-01-12T05:39:56.230Z,10.80
2023-01-12T05:42:41.687Z,10.80
2023-01-12T05:45:13.683Z,10.80
2023-01-12T05:47:41.899Z,10.80
2023-01-12T05:50:11.325Z,10.80
2023-01-12T05:52:39.519Z,10.80
2023-01-12T05:55:11.342Z,10.80
2023-01-12T05:57:39.529Z,10.90
2023-01-12T06:00:09.232Z,10.90
2023-01-12T06:02:37.945Z,10.90
2023-01-12T06:05:09.503Z,10.90
2023-01-12T06:07:37.854Z,10.80
2023-01-12T06:10:06.875Z,10.90
2023-01-12T06:12:54.227Z,10.90
2023-01-12T06:15:22.750Z,10.90
2023-01-12T06:17:51.039Z,10.90
2023-01-12T06:20:24.143Z,10.90
2023-01-12T06:22:52.447Z,10.90
2023-01-12T06:25:20.687Z,10.90
2023-01-12T06:27:50.527Z,11.00
2023-01-12T06:30:19.222Z,10.90
2023-01-12T06:32:49.332Z,11.00
2023-01-12T06:35:19.642Z,11.00
2023-01-12T06:37:48.132Z,11.00
2023-01-12T06:40:16.614Z,11.00
2023-01-12T06:42:44.821Z,11.00
2023-01-12T06:45:14.573Z,11.00
2023-01-12T06:47:46.425Z,11.00
2023-01-12T06:50:14.980Z,11.00
2023-01-12T06:52:43.264Z,11.00
2023-01-12T06:55:11.776Z,10.90
2023-01-12T06:57:40.163Z,10.90
2023-01-12T07:00:10.016Z,10.90
2023-01-12T07:02:39.647Z,10.90
2023-01-12T07:05:08.295Z,10.90
2023-01-12T07:07:39.286Z,10.90
2023-01-12T07:10:08.902Z,10.80
2023-01-12T07:12:37.319Z,10.80
2023-01-12T07:15:06.272Z,10.80
2023-01-12T07:17:34.475Z,10.80
2023-01-12T07:20:04.094Z,10.80
2023-01-12T07:22:32.355Z,10.80
2023-01-12T07:25:00.630Z,10.80
2023-01-12T07:27:28.838Z,10.80
2023-01-12T07:29:57.062Z,10.70
2023-01-12T07:32:29.665Z,10.70
2023-01-12T07:34:57.962Z,10.70
2023-01-12T07:37:27.636Z,10.70
2023-01-12T07:39:58.919Z,10.70
2023-01-12T07:42:27.306Z,10.70
2023-01-12T07:44:55.562Z,10.70
2023-01-12T07:47:24.283Z,10.70
2023-01-12T07:49:52.512Z,10.60
2023-01-12T07:52:20.733Z,10.70
2023-01-12T07:54:50.331Z,10.70
2023-01-12T07:57:19.106Z,10.60
2023-01-12T07:59:47.560Z,10.60
2023-01-12T08:02:17.085Z,10.60
2023-01-12T08:04:45.709Z,10.70
2023-01-12T08:07:14.928Z,10.60
2023-01-12T08:09:43.288Z,10.60
2023-01-12T08:12:12.939Z,10.70
2023-01-12T08:14:42.928Z,10.60
2023-01-12T08:17:15.441Z,10.60
2023-01-12T08:19:49.148Z,10.60
2023-01-12T08:22:21.593Z,10.60
2023-01-12T08:24:53.311Z,10.70
2023-01-12T08:27:25.858Z,10.70
2023-01-12T08:29:58.618Z,10.70
2023-01-12T08:32:29.438Z,10.70
2023-01-12T08:35:01.718Z,10.70
2023-01-12T08:37:31.540Z,10.70
2023-01-12T08:40:00.177Z,10.70
2023-01-12T08:42:31.937Z,10.70
2023-01-12T08:45:00.345Z,10.70
2023-01-12T08:47:30.562Z,10.70
2023-01-12T08:50:00.552Z,10.70
2023-01-12T08:52:31.774Z,10.70
2023-01-12T08:55:00.255Z,10.70
2023-01-12T08:57:30.159Z,10.70
2023-01-12T08:59:58.690Z,10.80
2023-01-12T09:02:27.204Z,10.80
2023-01-12T09:04:55.675Z,10.80
2023-01-12T09:07:23.932Z,10.80
2023-01-12T09:09:52.203Z,10.80
2023-01-12T09:12:20.994Z,10.80
2023-01-12T09:14:53.432Z,10.80
2023-01-12T09:17:23.001Z,10.80
2023-01-12T09:19:51.558Z,10.80
2023-01-12T09:22:19.782Z,10.80
2023-01-12T09:24:48.017Z,10.80
2023-01-12T09:27:16.323Z,10.80
2023-01-12T09:29:44.537Z,10.90
2023-01-12T09:32:14.803Z,10.90
2023-01-12T09:34:43.031Z,10.90
2023-01-12T09:37:11.344Z,10.90
2023-01-12T09:39:41.146Z,10.90
2023-01-12T09:42:35.120Z,11.00
2023-01-12T09:45:21.391Z,11.00
2023-01-12T09:47:56.269Z,11.00
2023-01-12T09:50:28.671Z,11.00
2023-01-12T09:53:01.697Z,11.00
2023-01-12T09:55:35.744Z,11.00
2023-01-12T09:58:27.636Z,11.00
2023-01-12T10:00:58.433Z,11.00
2023-01-12T10:03:31.899Z,11.00
2023-01-12T10:06:01.613Z,11.00
2023-01-12T10:08:33.883Z,11.00
2023-01-12T10:11:15.034Z,11.00
2023-01-12T10:14:14.501Z,11.00
2023-01-12T10:16:54.738Z,11.00
2023-01-12T10:19:30.117Z,11.00
2023-01-12T10:21:59.082Z,11.10
2023-01-12T10:24:27.681Z,11.10
2023-01-12T10:27:01.781Z,11.10
2023-01-12T10:29:31.964Z,11.10
2023-01-12T10:32:00.297Z,11.10
2023-01-12T10:34:30.655Z,11.10
2023-01-12T10:37:08.964Z,11.10
2023-01-12T10:39:39.750Z,11.10
2023-01-12T10:42:40.040Z,11.10
2023-01-12T10:45:20.749Z,11.10
2023-01-12T10:47:50.713Z,11.10
2023-01-12T10:50:29.062Z,11.20
2023-01-12T10:53:01.018Z,11.20
2023-01-12T10:55:33.675Z,11.20
2023-01-12T10:58:02.430Z,11.20
2023-01-12T11:00:31.351Z,11.20
2023-01-12T11:03:02.362Z,11.30
2023-01-12T11:05:36.762Z,11.30
2023-01-12T11:08:05.736Z,11.30
2023-01-12T11:10:37.486Z,11.30
2023-01-12T11:13:09.117Z,11.30
2023-01-12T11:15:40.065Z,11.30
2023-01-12T11:18:27.380Z,11.40
2023-01-12T11:21:02.559Z,11.40
2023-01-12T11:23:37.214Z,11.40
2023-01-12T11:26:16.900Z,11.40
2023-01-12T11:28:48.742Z,11.40
2023-01-12T11:31:22.503Z,11.40
2023-01-12T11:33:56.156Z,11.40
2023-01-12T11:36:30.226Z,11.40
2023-01-12T11:39:03.762Z,11.40
2023-01-12T11:41:39.256Z,11.40
2023-01-12T11:44:15.841Z,11.40
2023-01-12T11:46:48.432Z,11.50
2023-01-12T11:49:21.090Z,11.50
2023-01-12T11:51:56.109Z,11.50
2023-01-12T11:54:25.619Z,11.50
2023-01-12T11:57:17.510Z,11.50
2023-01-12T11:59:59.488Z,11.50
2023-01-12T12:02:37.682Z,11.50
2023-01-12T12:05:18.211Z,11.50
2023-01-12T12:08:03.634Z,11.50
2023-01-12T12:10:41.906Z,11.50
2023-01-12T12:13:27.361Z,11.50
2023-01-12T12:16:11.538Z,11.50
2023-01-12T12:18:54.650Z,11.50
2023-01-12T12:21:42.146Z,11.50
2023-01-12T12:24:20.820Z,11.50
2023-01-12T12:26:58.566Z,11.60
2023-01-12T12:29:41.197Z,11.50
2023-01-12T12:32:24.376Z,11.60
2023-01-12T12:35:07.534Z,11.60
2023-01-12T12:37:48.690Z,11.60
2023-01-12T12:40:54.327Z,11.60
2023-01-12T12:43:47.649Z,11.60
2023-01-12T12:46:26.418Z,11.60
2023-01-12T12:49:01.212Z,11.60
2023-01-12T12:51:32.524Z,11.60
2023-01-12T12:54:03.011Z,11.70
2023-01-12T12:56:36.635Z,11.70
2023-01-12T12:59:05.482Z,11.70
2023-01-12T13:01:42.565Z,11.70
2023-01-12T13:04:13.084Z,11.70
2023-01-12T13:06:45.844Z,11.70
2023-01-12T13:09:38.179Z,11.70
2023-01-12T13:12:33.485Z,11.80
2023-01-12T13:15:27.140Z,11.80
2023-01-12T13:17:56.211Z,11.80
2023-01-12T13:21:05.625Z,11.80
2023-01-12T13:24:18.326Z,11.80
2023-01-12T13:26:52.245Z,11.90
2023-01-12T13:29:52.010Z,11.80
2023-01-12T13:32:46.539Z,11.90
2023-01-12T13:35:55.874Z,11.90
2023-01-12T13:38:48.636Z,11.90
2023-01-12T13:41:42.029Z,11.90
2023-01-12T13:44:16.083Z,11.90
2023-01-12T13:46:48.492Z,11.90
2023-01-12T13:49:30.021Z,12.00
2023-01-12T13:52:00.551Z,12.00
2023-01-12T13:54:29.610Z,12.00
2023-01-12T13:57:00.136Z,12.00
2023-01-12T13:59:30.140Z,12.10
2023-01-12T14:02:00.029Z,12.10
2023-01-12T14:04:53.936Z,12.10
2023-01-12T14:07:29.103Z,12.20
2023-01-12T14:10:18.987Z,12.20
2023-01-12T14:13:04.781Z,12.20
2023-01-12T14:15:54.541Z,12.30
2023-01-12T14:18:26.040Z,12.30
2023-01-12T14:20:55.847Z,12.30
2023-01-12T14:23:28.960Z,12.30
2023-01-12T14:26:13.317Z,12.30
2023-01-12T14:28:43.683Z,12.30
2023-01-12T14:31:22.737Z,12.30
2023-01-12T14:33:54.913Z,12.40
2023-01-12T14:36:26.832Z,12.40
2023-01-12T14:38:57.919Z,12.40
2023-01-12T14:41:45.861Z,12.40
2023-01-12T14:44:37.745Z,12.40
2023-01-12T14:47:06.908Z,12.40
2023-01-12T14:49:38.265Z,12.40
2023-01-12T14:52:27.473Z,12.30
2023-01-12T14:54:55.802Z,12.30
2023-01-12T14:57:30.328Z,12.40
2023-01-12T14:59:59.029Z,12.30
2023-01-12T15:02:36.461Z,12.30
2023-01-12T15:05:17.049Z,12.30
2023-01-12T15:07:58.202Z,12.30
2023-01-12T15:10:32.512Z,12.20
2023-01-12T15:13:22.296Z,12.20
2023-01-12T15:16:09.764Z,12.20
2023-01-12T15:18:55.399Z,12.20
2023-01-12T15:21:43.395Z,12.20
2023-01-12T15:24:47.634Z,12.20
2023-01-12T15:27:17.490Z,12.10
2023-01-12T15:29:45.866Z,12.10
2023-01-12T15:32:19.196Z,12.10
2023-01-12T15:34:47.270Z,12.00
2023-01-12T15:37:18.360Z,12.10
2023-01-12T15:39:47.174Z,12.00
2023-01-12T15:42:17.597Z,12.00
2023-01-12T15:44:46.497Z,12.10
2023-01-12T15:47:16.520Z,12.00
2023-01-12T15:49:48.782Z,12.00
2023-01-12T15:52:21.542Z,12.10
2023-01-12T15:54:49.794Z,12.00
2023-01-12T15:57:18.567Z,12.10
2023-01-12T15:59:46.745Z,12.00
2023-01-12T16:02:34.281Z,12.10
2023-01-12T16:05:02.792Z,12.00
2023-01-12T16:07:32.431Z,12.10
2023-01-12T16:10:00.706Z,12.10
2023-01-12T16:12:28.902Z,12.10
2023-01-12T16:14:58.747Z,12.10
2023-01-12T16:17:27.124Z,12.00
2023-01-12T16:19:55.367Z,12.00
2023-01-12T16:22:26.442Z,12.00
2023-01-12T16:24:57.445Z,12.10
2023-01-12T16:27:28.048Z,12.10
2023-01-12T16:29:56.647Z,12.10
2023-01-12T16:32:25.832Z,12.10
2023-01-12T16:34:54.286Z,12.10
2023-01-12T16:37:26.903Z,12.10
2023-01-12T16:39:56.808Z,12.10
2023-01-12T16:42:25.113Z,12.10
2023-01-12T16:44:53.385Z,12.10
2023-01-12T16:47:22.193Z,12.20
2023-01-12T16:49:51.326Z,12.20
2023-01-12T16:52:21.795Z,12.20
2023-01-12T16:54:50.057Z,12.20
2023-01-12T16:57:19.784Z,12.20
2023-01-12T16:59:49.666Z,12.20
2023-01-12T17:02:19.674Z,12.20
2023-01-12T17:04:52.089Z,12.20
2023-01-12T17:07:20.888Z,12.20
2023-01-12T17:09:49.264Z,12.20
2023-01-12T17:12:18.965Z,12.20
2023-01-12T17:14:47.455Z,12.20
2023-01-12T17:17:15.949Z,12.20
2023-01-12T17:19:45.238Z,12.20
2023-01-12T17:22:14.519Z,12.20
2023-01-12T17:24:43.069Z,12.20
2023-01-12T17:27:12.120Z,12.20
2023-01-12T17:29:41.927Z,12.20
2023-01-12T17:32:10.771Z,12.20
2023-01-12T17:34:43.218Z,12.20
2023-01-12T17:37:12.028Z,12.20
2023-01-12T17:39:42.877Z,12.20
2023-01-12T17:42:30.445Z,12.20
2023-01-12T17:45:00.405Z,12.20
2023-01-12T17:47:28.746Z,12.20
2023-01-12T17:49:57.157Z,12.20
2023-01-12T17:52:26.405Z,12.20
2023-01-12T17:54:54.711Z,12.20
2023-01-12T17:57:22.972Z,12.20
2023-01-12T17:59:52.099Z,12.20
2023-01-12T18:02:21.790Z,12.20
2023-01-12T18:04:49.994Z,12.10
2023-01-12T18:07:20.488Z,12.10
2023-01-12T18:09:48.788Z,12.10
2023-01-12T18:12:20.605Z,12.10
2023-01-12T18:14:49.166Z,12.10
2023-01-12T18:17:18.157Z,12.10
2023-01-12T18:19:49.064Z,12.10
2023-01-12T18:22:17.273Z,12.20
2023-01-12T18:24:45.508Z,12.20
2023-01-12T18:27:13.787Z,12.10
2023-01-12T18:29:42.375Z,12.20
2023-01-12T18:32:10.777Z,12.20
2023-01-12T18:34:39.159Z,12.20
2023-01-12T18:37:08.780Z,12.20
2023-01-12T18:39:37.021Z,12.20
2023-01-12T18:42:22.887Z,12.20
2023-01-12T18:44:51.230Z,12.20
2023-01-12T18:47:37.530Z,12.20
2023-01-12T18:53:25.154Z,12.20
2023-01-12T18:55:55.759Z,12.20
2023-01-12T18:58:25.867Z,12.20
2023-01-12T19:00:54.217Z,12.20
2023-01-12T19:03:22.580Z,12.20
2023-01-12T19:05:59.792Z,12.20
2023-01-12T19:08:48.245Z,12.20
2023-01-12T19:11:17.355Z,12.20
2023-01-12T19:14:03.028Z,12.10
2023-01-12T19:16:48.446Z,12.20
2023-01-12T19:19:18.335Z,12.20
2023-01-12T19:22:04.427Z,12.10
2023-01-12T19:24:51.300Z,12.10
2023-01-12T19:27:36.697Z,12.10
2023-01-12T19:30:05.513Z,12.10
2023-01-12T19:32:33.854Z,12.20
2023-01-12T19:35:10.901Z,12.10
2023-01-12T19:37:40.205Z,12.10
2023-01-12T19:40:18.008Z,12.10
2023-01-12T19:43:03.793Z,12.10
2023-01-12T19:45:32.437Z,12.10
2023-01-12T19:48:00.754Z,12.10
2023-01-12T19:50:28.923Z,12.10
2023-01-12T19:52:57.200Z,12.10
2023-01-12T19:55:26.942Z,12.10
2023-01-12T19:57:55.548Z,12.10
2023-01-12T20:00:24.342Z,12.10
2023-01-12T20:02:52.980Z,12.10
2023-01-12T20:05:23.536Z,12.00
2023-01-12T20:07:53.100Z,12.00
2023-01-12T20:10:22.310Z,12.00
2023-01-12T20:12:52.549Z,12.00
2023-01-12T20:15:21.773Z,12.00
2023-01-12T20:17:50.737Z,12.00
2023-01-12T20:20:20.023Z,12.00
2023-01-12T20:22:50.851Z,12.00
2023-01-12T20:25:19.643Z,12.10
2023-01-12T20:27:49.289Z,12.00
2023-01-12T20:30:36.423Z,12.10
2023-01-12T20:33:06.617Z,12.00
2023-01-12T20:35:35.439Z,12.00
2023-01-12T20:38:06.779Z,12.00
2023-01-12T20:40:38.424Z,12.00
2023-01-12T20:43:06.772Z,12.00
2023-01-12T20:45:36.695Z,11.90
2023-01-12T20:48:05.064Z,12.00
2023-01-12T20:50:33.837Z,11.90
2023-01-12T20:53:02.509Z,11.90
2023-01-12T20:55:30.844Z,11.90
2023-01-12T20:57:59.134Z,11.90
2023-01-12T21:00:29.023Z,11.90
2023-01-12T21:02:58.633Z,11.90
2023-01-12T21:05:26.862Z,11.90
2023-01-12T21:08:07.132Z,11.80
2023-01-12T21:10:36.718Z,11.90
2023-01-12T21:13:05.624Z,11.90
2023-01-12T21:15:34.216Z,11.90
2023-01-12T21:18:03.880Z,11.90
2023-01-12T21:20:32.141Z,11.90
2023-01-12T21:23:00.407Z,11.90
2023-01-12T21:25:29.204Z,11.90
2023-01-12T21:27:57.432Z,11.90
2023-01-12T21:30:25.701Z,11.90
2023-01-12T21:32:55.098Z,11.90
2023-01-12T21:35:25.465Z,11.90
2023-01-12T21:37:53.745Z,11.90
2023-01-12T21:40:22.150Z,11.90
2023-01-12T21:43:08.127Z,11.90
2023-01-12T21:45:36.919Z,11.90
2023-01-12T21:48:05.838Z,11.90
2023-01-12T21:50:35.924Z,11.90
2023-01-12T21:53:07.840Z,11.90
2023-01-12T21:55:36.608Z,11.90
2023-01-12T21:58:04.999Z,11.90
2023-01-12T22:00:33.504Z,11.90
2023-01-12T22:03:01.931Z,11.90
2023-01-12T22:05:30.288Z,11.90
2023-01-12T22:07:59.957Z,11.90
2023-01-12T22:10:31.480Z,11.90
2023-01-12T22:13:02.891Z,11.90
2023-01-12T22:15:31.621Z,11.90
2023-01-12T22:18:00.686Z,11.90
2023-01-12T22:20:28.990Z,11.90
2023-01-12T22:22:57.227Z,11.90
2023-01-12T22:25:27.659Z,11.90
2023-01-12T22:27:57.150Z,11.90
2023-01-12T22:30:25.709Z,11.90
2023-01-12T22:32:55.857Z,11.90
2023-01-12T22:35:26.435Z,12.00
2023-01-12T22:37:55.826Z,12.00
2023-01-12T22:40:24.278Z,12.00
2023-01-12T22:43:11.368Z,11.90
2023-01-12T22:45:40.549Z,12.00
2023-01-12T22:48:08.847Z,12.00
2023-01-12T22:50:37.622Z,12.00
2023-01-12T22:53:05.888Z,12.00
2023-01-12T22:55:34.263Z,12.00
2023-01-12T22:58:03.981Z,11.90
2023-01-12T23:00:32.222Z,12.00
2023-01-12T23:03:03.284Z,12.00
2023-01-12T23:05:35.692Z,12.00
2023-01-12T23:08:04.504Z,12.00
2023-01-12T23:10:32.927Z,12.00
2023-01-12T23:13:15.919Z,12.00
2023-01-12T23:15:47.846Z,12.00
2023-01-12T23:18:17.689Z,12.00
2023-01-12T23:20:46.406Z,12.00
2023-01-12T23:23:15.203Z,12.00
2023-01-12T23:25:44.729Z,12.00
2023-01-12T23:28:14.308Z,12.00
2023-01-12T23:30:43.469Z,12.00
2023-01-12T23:33:13.051Z,12.00
2023-01-12T23:35:42.979Z,12.00
2023-01-12T23:38:16.467Z,12.00
2023-01-12T23:40:44.874Z,12.00
2023-01-12T23:43:13.104Z,12.00
2023-01-12T23:45:41.370Z,12.00
2023-01-12T23:48:09.683Z,12.00
2023-01-12T23:50:39.632Z,12.00
2023-01-12T23:53:07.926Z,12.00
2023-01-12T23:55:39.195Z,12.00
2023-01-12T23:58:08.192Z,12.00
